Time;durP1;ratioP1;P1;durP2;ratioP2;P2;SDS_P1;SDS_P2;PMS_P1;PMS_P2;Temp;Humidity;BMP_temperature;BMP_pressure;BME280_temperature;BME280_humidity;BME280_pressure;Samples;Min_cycle;Max_cycle;Signal;HPM_P1;HPM_P2
2023/09/03 00:02:25;;;;;;;6.22;3.47;;;;;;;;;;5029063;28;20041;-65
2023/09/03 00:04:52;;;;;;;7.40;3.42;;;;;;;;;;5029536;28;20052;-65
2023/09/03 00:07:19;;;;;;;6.90;3.40;;;;;;;;;;5029486;28;20139;-65
2023/09/03 00:09:45;;;;;;;5.50;3.05;;;;;;;;;;5005096;28;20061;-64
2023/09/03 00:12:12;;;;;;;5.57;3.13;;;;;;;;;;5029721;28;20112;-64
2023/09/03 00:14:39;;;;;;;5.65;3.13;;;;;;;;;;5029335;28;20655;-65
2023/09/03 00:17:06;;;;;;;6.90;3.63;;;;;;;;;;5029245;28;20044;-63
2023/09/03 00:19:33;;;;;;;7.93;3.53;;;;;;;;;;5028750;28;20044;-65
2023/09/03 00:21:59;;;;;;;6.20;3.70;;;;;;;;;;5028731;28;20103;-64
2023/09/03 00:24:26;;;;;;;5.25;3.13;;;;;;;;;;5026289;28;20033;-63
2023/09/03 00:26:53;;;;;;;11.82;3.28;;;;;;;;;;5028887;28;20154;-64
2023/09/03 00:29:19;;;;;;;5.50;3.05;;;;;;;;;;5028802;28;20039;-64
2023/09/03 00:31:46;;;;;;;8.88;3.30;;;;;;;;;;5028807;28;20077;-64
2023/09/03 00:34:12;;;;;;;7.85;3.33;;;;;;;;;;5029850;28;20396;-64
2023/09/03 00:36:40;;;;;;;5.47;2.92;;;;;;;;;;5028753;28;20047;-65
2023/09/03 00:39:07;;;;;;;6.47;3.08;;;;;;;;;;4997280;28;20042;-64
2023/09/03 00:41:34;;;;;;;4.93;2.90;;;;;;;;;;4994448;28;20558;-61
2023/09/03 00:44:03;;;;;;;8.25;3.17;;;;;;;;;;4994272;28;21020;-63
2023/09/03 00:46:30;;;;;;;7.20;3.33;;;;;;;;;;4994450;28;20050;-64
2023/09/03 00:48:57;;;;;;;6.13;2.72;;;;;;;;;;4994535;28;20170;-64
2023/09/03 00:51:24;;;;;;;5.53;3.15;;;;;;;;;;4999845;28;20080;-64
2023/09/03 00:53:54;;;;;;;8.80;4.82;;;;;;;;;;4996054;28;20689;-63
2023/09/03 00:56:21;;;;;;;10.00;3.55;;;;;;;;;;4998342;28;20555;-64
2023/09/03 00:58:48;;;;;;;8.27;3.60;;;;;;;;;;4995927;28;20061;-64
2023/09/03 01:01:15;;;;;;;6.57;3.28;;;;;;;;;;4999372;28;20513;-64
2023/09/03 01:03:42;;;;;;;5.60;3.13;;;;;;;;;;4996695;28;20034;-65
2023/09/03 01:06:09;;;;;;;6.05;3.17;;;;;;;;;;4999384;28;20260;-65
2023/09/03 01:08:36;;;;;;;10.52;3.47;;;;;;;;;;4999826;28;20442;-66
2023/09/03 01:11:18;;;;;;;7.30;3.97;;;;;;;;;;5001006;28;20061;-64
2023/09/03 01:13:45;;;;;;;6.70;4.07;;;;;;;;;;5001254;28;20697;-64
2023/09/03 01:16:19;;;;;;;7.28;3.58;;;;;;;;;;5003051;28;20025;-65
2023/09/03 01:18:47;;;;;;;8.05;4.22;;;;;;;;;;4999670;28;20076;-64
2023/09/03 01:21:21;;;;;;;7.07;3.55;;;;;;;;;;5002042;28;20034;-65
2023/09/03 01:24:02;;;;;;;8.45;3.60;;;;;;;;;;4999514;28;20920;-65
2023/09/03 01:26:47;;;;;;;5.72;3.17;;;;;;;;;;5000270;28;20046;-64
2023/09/03 01:29:14;;;;;;;8.65;3.45;;;;;;;;;;4998430;28;20053;-65
2023/09/03 01:31:41;;;;;;;8.90;3.58;;;;;;;;;;4997567;28;20410;-65
2023/09/03 01:34:08;;;;;;;5.28;3.20;;;;;;;;;;4998095;28;20026;-64
2023/09/03 01:36:38;;;;;;;6.60;3.63;;;;;;;;;;4997178;28;20081;-65
2023/09/03 01:39:04;;;;;;;6.45;3.90;;;;;;;;;;4997416;28;20437;-65
2023/09/03 01:41:34;;;;;;;7.78;3.78;;;;;;;;;;4997677;28;20056;-65
2023/09/03 01:44:05;;;;;;;6.20;3.40;;;;;;;;;;4998719;28;20045;-64
2023/09/03 01:46:48;;;;;;;7.25;3.65;;;;;;;;;;4995650;28;20489;-65
2023/09/03 01:49:21;;;;;;;8.13;3.83;;;;;;;;;;5011396;28;20046;-65
2023/09/03 01:52:04;;;;;;;7.07;3.13;;;;;;;;;;4998767;28;20251;-65
2023/09/03 01:54:34;;;;;;;5.43;3.28;;;;;;;;;;5009421;28;20049;-63
2023/09/03 01:57:19;;;;;;;9.50;3.95;;;;;;;;;;4999706;28;20073;-65
2023/09/03 01:59:58;;;;;;;7.18;3.50;;;;;;;;;;5004872;28;20038;-64
2023/09/03 02:02:25;;;;;;;10.10;4.35;;;;;;;;;;5013780;28;20045;-65
2023/09/03 02:04:52;;;;;;;7.50;4.00;;;;;;;;;;4997343;28;20106;-63
2023/09/03 02:07:19;;;;;;;12.50;4.28;;;;;;;;;;4996617;28;20805;-64
2023/09/03 02:09:45;;;;;;;9.40;5.10;;;;;;;;;;4996068;28;20046;-64
2023/09/03 02:12:12;;;;;;;13.07;5.18;;;;;;;;;;4997556;28;20540;-64
2023/09/03 02:14:39;;;;;;;12.07;5.93;;;;;;;;;;4996408;28;20399;-62
2023/09/03 02:17:05;;;;;;;11.75;5.70;;;;;;;;;;4996449;28;20069;-63
2023/09/03 02:19:32;;;;;;;8.68;4.72;;;;;;;;;;4995128;28;20046;-63
2023/09/03 02:21:58;;;;;;;14.52;5.00;;;;;;;;;;4995636;28;20068;-65
2023/09/03 02:24:25;;;;;;;11.45;4.60;;;;;;;;;;4994676;28;20871;-64
2023/09/03 02:26:52;;;;;;;9.73;5.03;;;;;;;;;;4996068;28;20041;-63
2023/09/03 02:29:18;;;;;;;12.07;4.65;;;;;;;;;;4994655;28;20046;-64
2023/09/03 02:31:45;;;;;;;10.88;4.75;;;;;;;;;;4995485;28;20121;-63
2023/09/03 02:34:13;;;;;;;7.13;4.00;;;;;;;;;;4996361;28;20502;-65
2023/09/03 02:36:40;;;;;;;10.40;4.75;;;;;;;;;;4993932;28;20052;-64
2023/09/03 02:39:06;;;;;;;8.50;4.32;;;;;;;;;;4995173;28;20183;-64
2023/09/03 02:41:33;;;;;;;14.32;4.80;;;;;;;;;;4994802;28;20041;-62
2023/09/03 02:44:01;;;;;;;13.50;4.95;;;;;;;;;;4994343;28;20089;-65
2023/09/03 02:46:28;;;;;;;12.98;5.05;;;;;;;;;;5006690;28;20045;-64
2023/09/03 02:48:55;;;;;;;14.77;5.20;;;;;;;;;;4994680;28;20085;-64
2023/09/03 02:51:22;;;;;;;12.27;5.13;;;;;;;;;;4993957;28;20053;-64
2023/09/03 02:53:51;;;;;;;10.50;4.72;;;;;;;;;;4995054;28;20084;-62
2023/09/03 02:56:19;;;;;;;13.73;5.10;;;;;;;;;;4992164;28;20124;-63
2023/09/03 02:58:49;;;;;;;9.57;5.15;;;;;;;;;;4996140;28;20046;-64
2023/09/03 03:01:17;;;;;;;10.88;5.18;;;;;;;;;;5009322;28;20030;-64
2023/09/03 03:04:03;;;;;;;17.33;6.30;;;;;;;;;;5005278;28;20050;-64
2023/09/03 03:06:30;;;;;;;13.35;7.22;;;;;;;;;;5007180;28;21181;-64
2023/09/03 03:08:57;;;;;;;13.95;8.32;;;;;;;;;;4990173;28;20088;-65
2023/09/03 03:11:24;;;;;;;20.02;7.18;;;;;;;;;;5008568;28;20053;-65
2023/09/03 03:13:52;;;;;;;12.52;7.10;;;;;;;;;;5008613;28;20037;-65
2023/09/03 03:16:18;;;;;;;17.65;6.80;;;;;;;;;;5009437;28;20042;-63
2023/09/03 03:18:46;;;;;;;14.00;7.05;;;;;;;;;;5007558;28;20090;-66
2023/09/03 03:21:19;;;;;;;18.00;7.22;;;;;;;;;;5009529;28;20087;-66
2023/09/03 03:23:47;;;;;;;13.48;6.55;;;;;;;;;;5007597;28;20087;-66
2023/09/03 03:26:13;;;;;;;11.40;6.53;;;;;;;;;;5006889;28;20025;-65
2023/09/03 03:28:40;;;;;;;14.43;7.82;;;;;;;;;;4995073;28;20534;-64
2023/09/03 03:31:12;;;;;;;16.58;7.55;;;;;;;;;;4988971;28;20665;-65
2023/09/03 03:33:41;;;;;;;17.02;7.93;;;;;;;;;;5005810;28;20646;-63
2023/09/03 03:36:11;;;;;;;20.00;7.82;;;;;;;;;;5007058;28;20517;-64
2023/09/03 03:38:38;;;;;;;18.20;8.00;;;;;;;;;;4993611;28;20033;-64
2023/09/03 03:41:07;;;;;;;17.00;7.40;;;;;;;;;;4998965;28;20433;-65
2023/09/03 03:43:34;;;;;;;15.05;7.68;;;;;;;;;;5004636;28;20045;-63
2023/09/03 03:46:01;;;;;;;15.38;6.50;;;;;;;;;;5000838;28;20339;-63
2023/09/03 03:48:27;;;;;;;15.55;6.97;;;;;;;;;;4998902;28;20074;-64
2023/09/03 03:50:55;;;;;;;11.23;6.20;;;;;;;;;;4999954;28;20049;-62
2023/09/03 03:53:21;;;;;;;12.95;6.80;;;;;;;;;;5000540;28;20038;-62
2023/09/03 03:55:48;;;;;;;12.25;6.13;;;;;;;;;;4998861;28;20112;-65
2023/09/03 03:58:14;;;;;;;9.55;5.68;;;;;;;;;;4998231;28;20784;-65
2023/09/03 04:00:41;;;;;;;9.25;5.75;;;;;;;;;;4997760;28;20072;-64
2023/09/03 04:03:08;;;;;;;14.30;7.10;;;;;;;;;;4991538;28;21452;-64
2023/09/03 04:05:34;;;;;;;15.23;6.95;;;;;;;;;;4992443;28;20060;-63
2023/09/03 04:08:01;;;;;;;15.68;7.07;;;;;;;;;;4999700;28;20640;-64
2023/09/03 04:10:27;;;;;;;15.10;7.22;;;;;;;;;;4995469;28;20112;-66
2023/09/03 04:12:56;;;;;;;12.80;6.50;;;;;;;;;;4992127;28;20049;-65
2023/09/03 04:15:22;;;;;;;11.32;6.78;;;;;;;;;;4991321;28;20046;-66
2023/09/03 04:17:49;;;;;;;11.15;7.28;;;;;;;;;;4994918;28;20041;-66
2023/09/03 04:20:16;;;;;;;13.20;6.60;;;;;;;;;;5004653;28;20064;-64
2023/09/03 04:22:42;;;;;;;15.52;7.40;;;;;;;;;;4992811;28;20037;-65
2023/09/03 04:25:09;;;;;;;15.40;7.45;;;;;;;;;;5006160;28;20034;-65
2023/09/03 04:27:36;;;;;;;15.88;9.32;;;;;;;;;;4994747;28;20080;-65
2023/09/03 04:30:04;;;;;;;13.15;7.07;;;;;;;;;;5010431;28;20113;-64
2023/09/03 04:32:30;;;;;;;11.32;6.82;;;;;;;;;;4998351;28;20163;-64
2023/09/03 04:34:57;;;;;;;13.65;7.55;;;;;;;;;;4998530;28;20042;-65
2023/09/03 04:37:24;;;;;;;15.38;7.35;;;;;;;;;;4999239;28;20077;-65
2023/09/03 04:39:50;;;;;;;11.02;7.10;;;;;;;;;;4997680;28;20647;-64
2023/09/03 04:42:17;;;;;;;11.15;6.80;;;;;;;;;;5000854;28;20442;-65
2023/09/03 04:44:45;;;;;;;11.98;7.45;;;;;;;;;;4995617;28;20089;-63
2023/09/03 04:47:12;;;;;;;13.88;8.48;;;;;;;;;;4998853;28;20107;-63
2023/09/03 04:49:38;;;;;;;12.43;7.82;;;;;;;;;;4988623;28;20622;-64
2023/09/03 04:52:05;;;;;;;12.60;7.78;;;;;;;;;;5011294;28;20620;-62
2023/09/03 04:54:33;;;;;;;15.55;8.35;;;;;;;;;;4995405;28;20856;-64
2023/09/03 04:56:59;;;;;;;13.73;7.82;;;;;;;;;;5009444;28;20053;-64
2023/09/03 04:59:28;;;;;;;14.45;7.47;;;;;;;;;;5006591;28;21736;-64
2023/09/03 05:01:54;;;;;;;13.75;7.55;;;;;;;;;;4997348;28;20049;-63
2023/09/03 05:04:21;;;;;;;14.20;8.63;;;;;;;;;;4997511;28;20065;-63
2023/09/03 05:06:47;;;;;;;12.63;8.40;;;;;;;;;;4998857;28;20073;-63
2023/09/03 05:09:14;;;;;;;15.43;8.30;;;;;;;;;;5011580;28;20038;-63
2023/09/03 05:11:42;;;;;;;11.93;7.80;;;;;;;;;;4999388;28;20056;-64
2023/09/03 05:14:09;;;;;;;14.65;7.90;;;;;;;;;;5009724;28;20048;-65
2023/09/03 05:16:36;;;;;;;14.75;8.55;;;;;;;;;;4999578;28;20033;-63
2023/09/03 05:19:05;;;;;;;13.45;8.88;;;;;;;;;;4998279;28;20041;-65
2023/09/03 05:21:34;;;;;;;13.80;8.38;;;;;;;;;;4998650;28;20382;-64
2023/09/03 05:24:02;;;;;;;13.40;8.73;;;;;;;;;;5008662;28;20038;-64
2023/09/03 05:26:29;;;;;;;12.95;8.60;;;;;;;;;;4996807;28;20034;-64
2023/09/03 05:28:56;;;;;;;15.32;9.60;;;;;;;;;;4995389;28;20054;-64
2023/09/03 05:31:22;;;;;;;14.50;9.43;;;;;;;;;;4997039;28;20096;-64
2023/09/03 05:33:49;;;;;;;15.23;9.82;;;;;;;;;;4996524;28;20068;-65
2023/09/03 05:36:15;;;;;;;16.13;9.68;;;;;;;;;;5003780;28;20049;-64
2023/09/03 05:38:42;;;;;;;15.45;9.43;;;;;;;;;;4994834;28;20042;-63
2023/09/03 05:41:12;;;;;;;14.73;9.40;;;;;;;;;;4990620;28;20560;-63
2023/09/03 05:43:38;;;;;;;17.13;9.30;;;;;;;;;;5004256;28;20069;-63
2023/09/03 05:46:05;;;;;;;16.15;10.20;;;;;;;;;;4994981;28;20498;-64
2023/09/03 05:48:32;;;;;;;14.15;9.20;;;;;;;;;;4994632;28;20655;-63
2023/09/03 05:51:03;;;;;;;14.95;9.27;;;;;;;;;;4992719;28;20144;-62
2023/09/03 05:53:31;;;;;;;14.18;9.75;;;;;;;;;;4994349;28;20046;-64
2023/09/03 05:56:04;;;;;;;13.20;9.30;;;;;;;;;;4994825;28;20037;-64
2023/09/03 05:58:31;;;;;;;13.68;9.55;;;;;;;;;;4999086;28;20857;-66
2023/09/03 06:00:58;;;;;;;13.30;9.32;;;;;;;;;;5013492;28;20097;-61
2023/09/03 06:03:25;;;;;;;15.18;9.80;;;;;;;;;;5013106;28;20041;-61
2023/09/03 06:05:51;;;;;;;15.40;9.65;;;;;;;;;;4985288;28;20108;-63
2023/09/03 06:08:18;;;;;;;13.57;9.27;;;;;;;;;;4994824;28;20478;-62
2023/09/03 06:10:45;;;;;;;17.45;9.65;;;;;;;;;;4999971;28;20525;-63
2023/09/03 06:13:11;;;;;;;14.65;9.88;;;;;;;;;;4994514;28;20265;-63
2023/09/03 06:15:38;;;;;;;13.50;9.15;;;;;;;;;;5005497;28;20486;-62
2023/09/03 06:18:05;;;;;;;15.65;9.98;;;;;;;;;;5005806;28;20104;-65
2023/09/03 06:20:37;;;;;;;15.35;9.82;;;;;;;;;;5005077;28;20073;-63
2023/09/03 06:23:04;;;;;;;14.55;10.13;;;;;;;;;;4993810;28;20045;-62
2023/09/03 06:25:30;;;;;;;16.00;10.27;;;;;;;;;;5003669;28;21416;-64
2023/09/03 06:27:57;;;;;;;13.32;10.00;;;;;;;;;;4995274;28;20145;-63
2023/09/03 06:30:24;;;;;;;16.30;10.25;;;;;;;;;;5005627;28;20092;-62
2023/09/03 06:32:50;;;;;;;15.95;10.13;;;;;;;;;;4993786;28;20081;-63
2023/09/03 06:35:17;;;;;;;16.17;9.88;;;;;;;;;;4994009;28;20065;-64
2023/09/03 06:37:43;;;;;;;20.38;11.70;;;;;;;;;;4994609;28;20096;-63
2023/09/03 06:40:14;;;;;;;15.45;11.10;;;;;;;;;;4985515;28;20452;-65
2023/09/03 06:42:42;;;;;;;16.35;10.40;;;;;;;;;;4996562;28;21248;-65
2023/09/03 06:45:09;;;;;;;17.33;11.65;;;;;;;;;;5008330;28;20394;-64
2023/09/03 06:47:36;;;;;;;21.38;13.82;;;;;;;;;;4995575;28;20468;-63
2023/09/03 06:50:02;;;;;;;27.15;14.55;;;;;;;;;;4993390;28;20054;-64
2023/09/03 06:52:29;;;;;;;19.85;13.18;;;;;;;;;;4992792;28;20146;-64
2023/09/03 06:54:56;;;;;;;18.85;11.82;;;;;;;;;;4984151;28;20092;-64
2023/09/03 06:57:24;;;;;;;19.27;11.38;;;;;;;;;;4994300;28;20508;-64
2023/09/03 06:59:50;;;;;;;18.55;11.90;;;;;;;;;;5008376;28;20042;-66
2023/09/03 07:02:17;;;;;;;18.33;11.55;;;;;;;;;;5006216;28;20521;-63
2023/09/03 07:04:44;;;;;;;18.05;12.15;;;;;;;;;;4995428;28;20068;-65
2023/09/03 07:07:10;;;;;;;17.90;12.40;;;;;;;;;;5017544;28;20051;-63
2023/09/03 07:09:37;;;;;;;19.50;12.25;;;;;;;;;;4997016;28;20072;-63
2023/09/03 07:12:04;;;;;;;21.17;13.13;;;;;;;;;;4995132;28;20050;-63
2023/09/03 07:14:35;;;;;;;23.45;13.18;;;;;;;;;;4994392;28;20046;-64
2023/09/03 07:17:02;;;;;;;21.98;14.65;;;;;;;;;;5015709;28;20112;-64
2023/09/03 07:19:29;;;;;;;25.83;15.63;;;;;;;;;;4997176;28;20077;-63
2023/09/03 07:21:56;;;;;;;28.85;17.70;;;;;;;;;;5013631;28;20060;-63
2023/09/03 07:24:23;;;;;;;33.75;20.17;;;;;;;;;;4999976;28;20180;-63
2023/09/03 07:26:49;;;;;;;34.42;20.65;;;;;;;;;;5030361;28;20568;-62
2023/09/03 07:29:16;;;;;;;36.50;22.10;;;;;;;;;;5015596;28;20033;-62
2023/09/03 07:31:46;;;;;;;36.30;21.25;;;;;;;;;;5002298;28;20545;-62
2023/09/03 07:34:12;;;;;;;32.83;22.00;;;;;;;;;;5006030;28;20486;-62
2023/09/03 07:36:39;;;;;;;33.58;21.35;;;;;;;;;;4994171;28;20064;-62
2023/09/03 07:39:06;;;;;;;35.25;20.58;;;;;;;;;;4995267;28;20045;-63
2023/09/03 07:41:33;;;;;;;32.35;20.38;;;;;;;;;;5005504;28;20549;-63
2023/09/03 07:44:21;;;;;;;32.05;21.38;;;;;;;;;;4994272;28;20834;-62
2023/09/03 07:46:47;;;;;;;30.15;19.83;;;;;;;;;;4977024;28;20041;-65
2023/09/03 07:49:15;;;;;;;34.20;20.42;;;;;;;;;;5000696;28;20064;-62
2023/09/03 07:51:42;;;;;;;37.05;21.80;;;;;;;;;;4994940;28;20065;-61
2023/09/03 07:54:09;;;;;;;37.85;22.25;;;;;;;;;;4994926;28;20129;-64
2023/09/03 07:56:36;;;;;;;37.35;22.15;;;;;;;;;;5012594;28;20164;-63
2023/09/03 07:59:03;;;;;;;37.05;22.58;;;;;;;;;;4995013;28;20076;-62
2023/09/03 08:01:29;;;;;;;38.75;24.35;;;;;;;;;;5010237;28;20709;-63
2023/09/03 08:03:56;;;;;;;39.55;24.05;;;;;;;;;;4993756;28;20200;-64
2023/09/03 08:06:23;;;;;;;42.28;24.92;;;;;;;;;;5012383;28;20037;-63
2023/09/03 08:08:59;;;;;;;39.10;24.33;;;;;;;;;;4991025;28;20501;-63
2023/09/03 08:11:26;;;;;;;40.50;25.00;;;;;;;;;;4985425;28;20244;-63
2023/09/03 08:13:57;;;;;;;42.53;25.85;;;;;;;;;;4981709;28;20042;-65
2023/09/03 08:16:43;;;;;;;49.70;27.92;;;;;;;;;;4978432;28;20787;-62
2023/09/03 08:19:10;;;;;;;45.90;28.70;;;;;;;;;;4989694;28;20046;-64
2023/09/03 08:21:37;;;;;;;50.40;29.77;;;;;;;;;;4974577;28;20782;-64
2023/09/03 08:24:05;;;;;;;53.10;32.17;;;;;;;;;;4990050;28;20049;-63
2023/09/03 08:26:32;;;;;;;52.92;33.90;;;;;;;;;;4987841;28;20084;-63
2023/09/03 08:28:58;;;;;;;56.03;34.33;;;;;;;;;;4986825;28;20684;-64
2023/09/03 08:31:25;;;;;;;58.05;37.10;;;;;;;;;;4988572;28;20379;-63
2023/09/03 08:33:53;;;;;;;62.40;38.17;;;;;;;;;;4987233;28;20576;-63
2023/09/03 08:36:22;;;;;;;60.75;37.17;;;;;;;;;;4989630;28;20089;-63
2023/09/03 08:38:48;;;;;;;64.82;38.33;;;;;;;;;;4986220;28;20053;-63
2023/09/03 08:41:15;;;;;;;65.50;41.35;;;;;;;;;;4987232;28;20042;-63
2023/09/03 08:43:42;;;;;;;63.65;39.78;;;;;;;;;;4987775;28;20045;-64
2023/09/03 08:46:11;;;;;;;63.95;39.83;;;;;;;;;;4989977;28;20062;-63
2023/09/03 08:48:38;;;;;;;64.93;41.45;;;;;;;;;;4980325;28;20129;-62
2023/09/03 08:51:05;;;;;;;72.22;41.00;;;;;;;;;;4971784;28;20124;-62
2023/09/03 08:53:51;;;;;;;70.47;43.08;;;;;;;;;;4997404;28;20092;-64
2023/09/03 08:56:18;;;;;;;71.03;44.40;;;;;;;;;;4982341;28;20875;-62
2023/09/03 08:59:04;;;;;;;72.22;44.67;;;;;;;;;;5004929;28;20041;-62
2023/09/03 09:01:32;;;;;;;72.97;45.20;;;;;;;;;;4948065;28;20038;-62
2023/09/03 09:04:04;;;;;;;73.15;45.50;;;;;;;;;;4966645;28;20462;-66
2023/09/03 09:06:32;;;;;;;78.22;49.03;;;;;;;;;;4969913;28;20149;-61
2023/09/03 09:09:02;;;;;;;87.50;52.42;;;;;;;;;;4968572;28;20050;-62
2023/09/03 09:11:32;;;;;;;82.20;51.67;;;;;;;;;;4968734;28;20051;-62
2023/09/03 09:13:59;;;;;;;86.88;53.90;;;;;;;;;;4967538;28;20599;-63
2023/09/03 09:16:26;;;;;;;88.43;56.15;;;;;;;;;;4969523;28;20104;-62
2023/09/03 09:18:53;;;;;;;92.03;57.35;;;;;;;;;;4969862;28;20435;-62
2023/09/03 09:21:19;;;;;;;97.15;60.10;;;;;;;;;;4972447;28;20420;-63
2023/09/03 09:23:47;;;;;;;101.95;61.08;;;;;;;;;;4987288;28;20165;-63
2023/09/03 09:26:22;;;;;;;109.63;63.90;;;;;;;;;;4983182;28;20042;-63
2023/09/03 09:28:59;;;;;;;104.22;63.13;;;;;;;;;;4974292;28;20042;-63
2023/09/03 09:31:29;;;;;;;100.95;62.90;;;;;;;;;;4996719;28;20097;-64
2023/09/03 09:33:56;;;;;;;102.70;64.00;;;;;;;;;;4996529;28;20073;-63
2023/09/03 09:36:23;;;;;;;104.63;64.50;;;;;;;;;;4996427;28;20040;-63
2023/09/03 09:38:50;;;;;;;108.78;66.28;;;;;;;;;;4997801;28;20069;-63
2023/09/03 09:41:24;;;;;;;108.78;68.35;;;;;;;;;;4997670;28;20379;-62
2023/09/03 09:43:54;;;;;;;111.38;69.88;;;;;;;;;;4995199;28;20465;-64
2023/09/03 09:46:31;;;;;;;118.35;71.82;;;;;;;;;;4997460;28;20573;-63
2023/09/03 09:48:59;;;;;;;117.13;72.30;;;;;;;;;;4997804;28;20320;-62
2023/09/03 09:51:26;;;;;;;127.70;75.88;;;;;;;;;;4998611;28;20054;-62
2023/09/03 09:53:58;;;;;;;118.75;75.40;;;;;;;;;;4999480;28;20037;-62
2023/09/03 09:56:29;;;;;;;121.05;76.05;;;;;;;;;;5011888;28;20402;-61
2023/09/03 09:58:59;;;;;;;124.43;78.43;;;;;;;;;;4992604;28;20080;-63
2023/09/03 10:01:27;;;;;;;128.73;80.22;;;;;;;;;;5006201;28;21140;-63
2023/09/03 10:03:54;;;;;;;134.98;80.38;;;;;;;;;;4996052;28;20045;-63
2023/09/03 10:06:22;;;;;;;130.18;79.75;;;;;;;;;;4997799;28;20041;-63
2023/09/03 10:08:51;;;;;;;130.18;80.18;;;;;;;;;;4997454;28;20064;-61
2023/09/03 10:11:18;;;;;;;140.10;83.65;;;;;;;;;;4995729;28;20121;-60
2023/09/03 10:13:45;;;;;;;142.60;86.25;;;;;;;;;;4994778;28;20046;-62
2023/09/03 10:16:11;;;;;;;136.10;84.72;;;;;;;;;;4995957;28;20034;-60
2023/09/03 10:18:45;;;;;;;136.40;81.78;;;;;;;;;;4995901;28;20042;-61
2023/09/03 10:21:12;;;;;;;139.68;85.57;;;;;;;;;;4995792;28;20037;-62
2023/09/03 10:23:47;;;;;;;134.25;83.43;;;;;;;;;;4995137;28;20034;-62
2023/09/03 10:26:14;;;;;;;132.35;83.55;;;;;;;;;;4996453;28;20064;-62
2023/09/03 10:28:43;;;;;;;137.00;83.22;;;;;;;;;;4995565;28;21289;-63
2023/09/03 10:31:10;;;;;;;132.40;84.65;;;;;;;;;;4996540;28;20069;-61
2023/09/03 10:33:39;;;;;;;130.60;81.72;;;;;;;;;;4994842;28;20129;-61
2023/09/03 10:36:13;;;;;;;134.18;85.75;;;;;;;;;;4997955;28;20042;-63
2023/09/03 10:38:43;;;;;;;139.30;84.57;;;;;;;;;;4998251;28;20368;-63
2023/09/03 10:41:19;;;;;;;138.93;85.28;;;;;;;;;;5009587;28;20486;-63
2023/09/03 10:43:51;;;;;;;143.82;85.95;;;;;;;;;;4996262;28;20183;-63
2023/09/03 10:46:17;;;;;;;145.13;87.07;;;;;;;;;;4997587;28;20042;-63
2023/09/03 10:48:51;;;;;;;141.02;87.72;;;;;;;;;;5010694;28;20042;-62
2023/09/03 10:51:34;;;;;;;139.57;85.57;;;;;;;;;;4997708;28;20054;-60
2023/09/03 10:54:20;;;;;;;140.32;84.75;;;;;;;;;;5010401;28;20204;-62
2023/09/03 10:57:05;;;;;;;139.63;84.47;;;;;;;;;;4994021;28;20049;-61
2023/09/03 10:59:50;;;;;;;137.45;85.00;;;;;;;;;;4995888;28;20562;-63
2023/09/03 11:02:26;;;;;;;130.98;83.25;;;;;;;;;;5000371;28;20509;-61
2023/09/03 11:05:11;;;;;;;129.77;82.53;;;;;;;;;;4998409;28;20046;-61
2023/09/03 11:07:38;;;;;;;137.48;83.13;;;;;;;;;;4996687;28;20921;-60
2023/09/03 11:10:28;;;;;;;143.82;84.47;;;;;;;;;;4999867;28;20073;-62
2023/09/03 11:12:55;;;;;;;133.90;80.47;;;;;;;;;;5001282;28;20133;-63
2023/09/03 11:15:21;;;;;;;132.38;80.55;;;;;;;;;;5006957;28;20109;-63
2023/09/03 11:17:55;;;;;;;132.70;83.20;;;;;;;;;;5001811;28;20041;-63
2023/09/03 11:20:31;;;;;;;130.18;81.88;;;;;;;;;;5012533;28;20038;-63
2023/09/03 11:23:02;;;;;;;127.40;80.00;;;;;;;;;;5002038;28;20041;-63
2023/09/03 11:25:32;;;;;;;130.18;79.63;;;;;;;;;;5000084;28;20159;-64
2023/09/03 11:27:59;;;;;;;130.38;81.28;;;;;;;;;;5000032;28;20778;-60
2023/09/03 11:30:26;;;;;;;129.18;80.68;;;;;;;;;;5001244;28;20030;-62
2023/09/03 11:32:53;;;;;;;130.00;80.00;;;;;;;;;;5008759;28;20053;-63
2023/09/03 11:35:19;;;;;;;132.23;81.60;;;;;;;;;;5015640;28;20099;-62
2023/09/03 11:37:46;;;;;;;127.65;78.32;;;;;;;;;;5010193;28;20486;-63
2023/09/03 11:40:13;;;;;;;134.10;82.47;;;;;;;;;;5001973;28;20510;-63
2023/09/03 11:42:44;;;;;;;131.30;81.55;;;;;;;;;;5001856;28;20045;-63
2023/09/03 11:45:11;;;;;;;132.27;81.97;;;;;;;;;;5001864;28;20038;-61
2023/09/03 11:47:51;;;;;;;129.77;80.82;;;;;;;;;;5014882;28;20037;-63
2023/09/03 11:50:20;;;;;;;131.05;81.32;;;;;;;;;;5004200;28;20045;-62
2023/09/03 11:52:50;;;;;;;136.50;82.60;;;;;;;;;;5003722;28;20053;-63
2023/09/03 11:55:17;;;;;;;138.93;83.57;;;;;;;;;;5014057;28;20159;-63
2023/09/03 11:57:44;;;;;;;136.07;84.13;;;;;;;;;;5005367;28;21767;-63
2023/09/03 12:00:15;;;;;;;132.48;82.10;;;;;;;;;;5011622;28;20081;-62
2023/09/03 12:02:42;;;;;;;137.98;84.68;;;;;;;;;;4999766;28;20042;-63
2023/09/03 12:05:09;;;;;;;132.02;82.22;;;;;;;;;;5001611;28;20129;-61
2023/09/03 12:07:36;;;;;;;131.80;84.63;;;;;;;;;;5000437;28;20409;-61
2023/09/03 12:10:02;;;;;;;136.07;85.32;;;;;;;;;;4999003;28;20418;-61
2023/09/03 12:12:29;;;;;;;136.50;84.90;;;;;;;;;;5000022;28;20787;-63
2023/09/03 12:14:56;;;;;;;138.35;86.95;;;;;;;;;;4999579;28;20125;-65
2023/09/03 12:17:26;;;;;;;134.30;86.65;;;;;;;;;;5011243;28;20574;-64
2023/09/03 12:19:53;;;;;;;139.60;86.00;;;;;;;;;;4998857;28;20456;-63
2023/09/03 12:22:20;;;;;;;132.77;84.80;;;;;;;;;;4996713;28;20038;-62
2023/09/03 12:24:47;;;;;;;136.27;85.15;;;;;;;;;;4994998;28;20486;-62
2023/09/03 12:27:13;;;;;;;141.45;85.45;;;;;;;;;;4993978;28;20041;-60
2023/09/03 12:29:41;;;;;;;141.80;84.07;;;;;;;;;;4992700;28;20046;-60
2023/09/03 12:32:08;;;;;;;133.13;84.38;;;;;;;;;;4993778;28;20093;-63
2023/09/03 12:34:36;;;;;;;127.30;81.93;;;;;;;;;;4993118;28;20062;-62
2023/09/03 12:37:03;;;;;;;133.93;82.45;;;;;;;;;;4994871;28;20213;-63
2023/09/03 12:39:33;;;;;;;137.93;84.20;;;;;;;;;;4994052;28;20042;-63
2023/09/03 12:42:00;;;;;;;133.07;83.90;;;;;;;;;;4995469;28;20435;-63
2023/09/03 12:44:27;;;;;;;138.63;84.63;;;;;;;;;;5003716;28;20208;-63
2023/09/03 12:46:54;;;;;;;132.02;86.00;;;;;;;;;;5006437;28;20041;-61
2023/09/03 12:49:21;;;;;;;133.98;83.43;;;;;;;;;;4993875;28;20408;-63
2023/09/03 12:51:48;;;;;;;138.80;84.30;;;;;;;;;;4997330;28;20653;-62
2023/09/03 12:54:15;;;;;;;137.05;84.90;;;;;;;;;;4994601;28;20068;-61
2023/09/03 12:56:42;;;;;;;134.75;81.97;;;;;;;;;;4994198;28;20125;-61
2023/09/03 12:59:09;;;;;;;137.50;82.63;;;;;;;;;;4994770;28;20130;-60
2023/09/03 13:01:36;;;;;;;133.85;84.43;;;;;;;;;;5009564;28;20041;-61
2023/09/03 13:04:03;;;;;;;135.45;82.25;;;;;;;;;;4995605;28;20577;-62
2023/09/03 13:06:30;;;;;;;133.00;83.95;;;;;;;;;;4994738;28;20046;-60
2023/09/03 13:08:57;;;;;;;137.73;83.50;;;;;;;;;;4999615;28;20042;-61
2023/09/03 13:11:23;;;;;;;132.32;82.72;;;;;;;;;;5000462;28;20111;-62
2023/09/03 13:13:50;;;;;;;132.15;82.10;;;;;;;;;;4996709;28;20137;-62
2023/09/03 13:16:17;;;;;;;132.10;80.90;;;;;;;;;;4998334;28;20041;-62
2023/09/03 13:18:45;;;;;;;140.60;84.72;;;;;;;;;;5010086;28;20156;-60
2023/09/03 13:21:14;;;;;;;131.18;81.53;;;;;;;;;;4998580;28;20040;-61
2023/09/03 13:23:41;;;;;;;135.90;82.53;;;;;;;;;;4997956;28;20048;-62
2023/09/03 13:26:08;;;;;;;130.45;82.13;;;;;;;;;;4995814;28;20081;-63
2023/09/03 13:28:34;;;;;;;135.73;84.05;;;;;;;;;;4997452;28;20048;-62
2023/09/03 13:31:02;;;;;;;129.48;80.55;;;;;;;;;;5014811;28;20461;-62
2023/09/03 13:33:29;;;;;;;134.48;81.43;;;;;;;;;;5000520;28;20058;-62
2023/09/03 13:35:56;;;;;;;130.52;82.43;;;;;;;;;;5003222;28;20080;-62
2023/09/03 13:38:24;;;;;;;131.98;81.95;;;;;;;;;;5003548;28;20049;-65
2023/09/03 13:40:51;;;;;;;133.65;82.53;;;;;;;;;;4998019;28;20041;-61
2023/09/03 13:43:18;;;;;;;139.85;82.97;;;;;;;;;;4998496;28;20045;-62
2023/09/03 13:45:54;;;;;;;127.65;80.10;;;;;;;;;;4995622;28;20049;-62
2023/09/03 13:48:21;;;;;;;113.88;70.10;;;;;;;;;;4993903;28;20157;-61
2023/09/03 13:50:47;;;;;;;104.40;63.00;;;;;;;;;;5000062;28;20119;-62
2023/09/03 13:53:14;;;;;;;90.95;57.30;;;;;;;;;;4997097;28;20100;-61
2023/09/03 13:55:41;;;;;;;90.70;55.80;;;;;;;;;;4993082;28;20040;-64
2023/09/03 13:58:07;;;;;;;88.45;54.53;;;;;;;;;;4993987;28;20061;-64
2023/09/03 14:00:34;;;;;;;81.53;52.40;;;;;;;;;;4992321;28;20389;-64
2023/09/03 14:03:01;;;;;;;84.03;51.00;;;;;;;;;;4992344;28;20793;-64
2023/09/03 14:05:27;;;;;;;83.65;50.30;;;;;;;;;;4990679;28;20478;-64
2023/09/03 14:07:54;;;;;;;79.97;48.35;;;;;;;;;;5008325;28;20548;-63
2023/09/03 14:10:20;;;;;;;75.78;47.42;;;;;;;;;;5000652;28;20101;-66
2023/09/03 14:12:47;;;;;;;77.50;47.28;;;;;;;;;;4990995;28;20446;-64
2023/09/03 14:15:14;;;;;;;69.97;42.67;;;;;;;;;;4991792;28;20038;-63
2023/09/03 14:17:41;;;;;;;63.70;39.30;;;;;;;;;;4991610;28;20034;-64
2023/09/03 14:20:08;;;;;;;60.75;37.67;;;;;;;;;;4993241;28;20092;-65
2023/09/03 14:22:35;;;;;;;55.33;33.85;;;;;;;;;;4991318;28;20044;-65
2023/09/03 14:25:01;;;;;;;50.95;31.55;;;;;;;;;;5025588;28;20034;-65
2023/09/03 14:27:28;;;;;;;44.65;29.75;;;;;;;;;;4990586;28;20052;-64
2023/09/03 14:29:55;;;;;;;50.17;29.92;;;;;;;;;;5016433;28;20526;-63